sensor_id;sensor_type;location;lat;lon;timestamp;P1;durP1;ratioP1;P2;durP2;ratioP2
48881;SDS011;57063;51.406;-2.402;2023-06-24T00:01:49;11.20;;;5.95;;
48881;SDS011;57063;51.406;-2.402;2023-06-24T00:04:31;7.97;;;4.20;;
48881;SDS011;57063;51.406;-2.402;2023-06-24T00:06:56;9.13;;;4.90;;
48881;SDS011;57063;51.406;-2.402;2023-06-24T00:09:28;10.10;;;5.38;;
48881;SDS011;57063;51.406;-2.402;2023-06-24T00:12:09;9.80;;;5.35;;
48881;SDS011;57063;51.406;-2.402;2023-06-24T00:14:49;7.22;;;4.22;;
48881;SDS011;57063;51.406;-2.402;2023-06-24T00:17:15;7.40;;;4.13;;
48881;SDS011;57063;51.406;-2.402;2023-06-24T00:19:44;4.95;;;3.65;;
48881;SDS011;57063;51.406;-2.402;2023-06-24T00:22:09;6.43;;;4.35;;
48881;SDS011;57063;51.406;-2.402;2023-06-24T00:24:35;10.70;;;4.45;;
48881;SDS011;57063;51.406;-2.402;2023-06-24T00:27:00;5.47;;;4.05;;
48881;SDS011;57063;51.406;-2.402;2023-06-24T00:29:26;8.18;;;4.15;;
48881;SDS011;57063;51.406;-2.402;2023-06-24T00:31:51;12.57;;;5.25;;
48881;SDS011;57063;51.406;-2.402;2023-06-24T00:34:17;8.40;;;4.50;;
48881;SDS011;57063;51.406;-2.402;2023-06-24T00:36:45;7.53;;;4.78;;
48881;SDS011;57063;51.406;-2.402;2023-06-24T00:39:12;8.43;;;5.25;;
48881;SDS011;57063;51.406;-2.402;2023-06-24T00:41:37;7.95;;;4.13;;
48881;SDS011;57063;51.406;-2.402;2023-06-24T00:44:03;10.18;;;5.07;;
48881;SDS011;57063;51.406;-2.402;2023-06-24T00:46:29;10.90;;;4.85;;
48881;SDS011;57063;51.406;-2.402;2023-06-24T00:48:57;8.57;;;4.50;;
48881;SDS011;57063;51.406;-2.402;2023-06-24T00:51:23;4.70;;;4.00;;
48881;SDS011;57063;51.406;-2.402;2023-06-24T00:53:54;10.88;;;4.72;;
48881;SDS011;57063;51.406;-2.402;2023-06-24T00:56:21;8.57;;;4.22;;
48881;SDS011;57063;51.406;-2.402;2023-06-24T00:58:50;9.75;;;4.85;;
48881;SDS011;57063;51.406;-2.402;2023-06-24T01:01:18;9.13;;;5.68;;
48881;SDS011;57063;51.406;-2.402;2023-06-24T01:03:44;8.07;;;4.25;;
48881;SDS011;57063;51.406;-2.402;2023-06-24T01:06:10;8.23;;;4.15;;
48881;SDS011;57063;51.406;-2.402;2023-06-24T01:08:36;9.90;;;3.63;;
48881;SDS011;57063;51.406;-2.402;2023-06-24T01:11:02;8.77;;;5.00;;
48881;SDS011;57063;51.406;-2.402;2023-06-24T01:13:28;6.28;;;4.50;;
48881;SDS011;57063;51.406;-2.402;2023-06-24T01:15:54;7.10;;;4.75;;
48881;SDS011;57063;51.406;-2.402;2023-06-24T01:21:01;8.95;;;4.70;;
48881;SDS011;57063;51.406;-2.402;2023-06-24T01:34:01;7.68;;;4.22;;
48881;SDS011;57063;51.406;-2.402;2023-06-24T01:36:28;7.82;;;5.20;;
48881;SDS011;57063;51.406;-2.402;2023-06-24T01:39:00;5.95;;;3.83;;
48881;SDS011;57063;51.406;-2.402;2023-06-24T01:41:31;5.50;;;3.83;;
48881;SDS011;57063;51.406;-2.402;2023-06-24T01:43:59;7.18;;;3.35;;
48881;SDS011;57063;51.406;-2.402;2023-06-24T01:46:27;8.02;;;4.15;;
48881;SDS011;57063;51.406;-2.402;2023-06-24T01:48:54;7.45;;;3.78;;
48881;SDS011;57063;51.406;-2.402;2023-06-24T01:51:24;6.75;;;3.72;;
48881;SDS011;57063;51.406;-2.402;2023-06-24T01:53:52;6.82;;;3.50;;
48881;SDS011;57063;51.406;-2.402;2023-06-24T01:56:23;11.20;;;5.20;;
48881;SDS011;57063;51.406;-2.402;2023-06-24T01:58:52;9.15;;;4.32;;
48881;SDS011;57063;51.406;-2.402;2023-06-24T02:01:19;12.30;;;5.57;;
48881;SDS011;57063;51.406;-2.402;2023-06-24T02:03:48;5.07;;;3.78;;
48881;SDS011;57063;51.406;-2.402;2023-06-24T02:06:14;7.50;;;3.92;;
48881;SDS011;57063;51.406;-2.402;2023-06-24T02:08:42;8.90;;;4.53;;
48881;SDS011;57063;51.406;-2.402;2023-06-24T02:11:08;7.80;;;3.90;;
48881;SDS011;57063;51.406;-2.402;2023-06-24T02:13:35;11.65;;;4.65;;
48881;SDS011;57063;51.406;-2.402;2023-06-24T02:16:04;7.72;;;4.18;;
48881;SDS011;57063;51.406;-2.402;2023-06-24T02:18:32;5.63;;;4.60;;
48881;SDS011;57063;51.406;-2.402;2023-06-24T02:21:00;8.07;;;3.90;;
48881;SDS011;57063;51.406;-2.402;2023-06-24T02:23:28;8.88;;;4.88;;
48881;SDS011;57063;51.406;-2.402;2023-06-24T02:25:55;7.28;;;3.78;;
48881;SDS011;57063;51.406;-2.402;2023-06-24T02:28:21;9.38;;;4.57;;
48881;SDS011;57063;51.406;-2.402;2023-06-24T02:30:48;11.43;;;4.82;;
48881;SDS011;57063;51.406;-2.402;2023-06-24T02:33:14;8.82;;;5.10;;
48881;SDS011;57063;51.406;-2.402;2023-06-24T02:35:40;7.45;;;5.00;;
48881;SDS011;57063;51.406;-2.402;2023-06-24T02:38:07;10.85;;;5.35;;
48881;SDS011;57063;51.406;-2.402;2023-06-24T02:40:32;8.75;;;5.18;;
48881;SDS011;57063;51.406;-2.402;2023-06-24T02:42:59;7.07;;;5.20;;
48881;SDS011;57063;51.406;-2.402;2023-06-24T02:45:24;10.35;;;5.35;;
48881;SDS011;57063;51.406;-2.402;2023-06-24T02:47:50;9.93;;;5.22;;
48881;SDS011;57063;51.406;-2.402;2023-06-24T02:50:17;7.35;;;5.25;;
48881;SDS011;57063;51.406;-2.402;2023-06-24T02:52:43;8.20;;;5.28;;
48881;SDS011;57063;51.406;-2.402;2023-06-24T02:55:09;11.43;;;5.30;;
48881;SDS011;57063;51.406;-2.402;2023-06-24T02:57:35;9.98;;;7.57;;
48881;SDS011;57063;51.406;-2.402;2023-06-24T03:00:02;11.60;;;6.30;;
48881;SDS011;57063;51.406;-2.402;2023-06-24T03:02:30;9.38;;;5.75;;
48881;SDS011;57063;51.406;-2.402;2023-06-24T03:05:00;10.95;;;6.45;;
48881;SDS011;57063;51.406;-2.402;2023-06-24T03:07:27;9.65;;;6.28;;
48881;SDS011;57063;51.406;-2.402;2023-06-24T03:09:53;10.82;;;6.25;;
48881;SDS011;57063;51.406;-2.402;2023-06-24T03:12:18;11.13;;;7.15;;
48881;SDS011;57063;51.406;-2.402;2023-06-24T03:14:44;10.02;;;5.90;;
48881;SDS011;57063;51.406;-2.402;2023-06-24T03:17:09;13.10;;;7.20;;
48881;SDS011;57063;51.406;-2.402;2023-06-24T03:19:36;13.38;;;5.70;;
48881;SDS011;57063;51.406;-2.402;2023-06-24T03:22:02;5.18;;;4.43;;
48881;SDS011;57063;51.406;-2.402;2023-06-24T03:24:28;5.85;;;5.30;;
48881;SDS011;57063;51.406;-2.402;2023-06-24T03:26:55;7.72;;;4.63;;
48881;SDS011;57063;51.406;-2.402;2023-06-24T03:29:25;8.30;;;5.97;;
48881;SDS011;57063;51.406;-2.402;2023-06-24T03:31:50;9.02;;;5.47;;
48881;SDS011;57063;51.406;-2.402;2023-06-24T03:34:16;10.70;;;6.15;;
48881;SDS011;57063;51.406;-2.402;2023-06-24T03:36:42;12.57;;;6.97;;
48881;SDS011;57063;51.406;-2.402;2023-06-24T03:39:07;10.25;;;5.43;;
48881;SDS011;57063;51.406;-2.402;2023-06-24T03:41:33;11.63;;;5.90;;
48881;SDS011;57063;51.406;-2.402;2023-06-24T03:43:58;11.02;;;6.00;;
48881;SDS011;57063;51.406;-2.402;2023-06-24T03:46:24;7.22;;;5.00;;
48881;SDS011;57063;51.406;-2.402;2023-06-24T03:48:50;9.95;;;5.43;;
48881;SDS011;57063;51.406;-2.402;2023-06-24T03:51:16;10.60;;;5.60;;
48881;SDS011;57063;51.406;-2.402;2023-06-24T03:53:41;8.77;;;5.43;;
48881;SDS011;57063;51.406;-2.402;2023-06-24T03:56:07;7.43;;;5.28;;
48881;SDS011;57063;51.406;-2.402;2023-06-24T03:58:32;9.93;;;5.03;;
48881;SDS011;57063;51.406;-2.402;2023-06-24T04:00:59;10.40;;;5.28;;
48881;SDS011;57063;51.406;-2.402;2023-06-24T04:03:25;11.82;;;6.07;;
48881;SDS011;57063;51.406;-2.402;2023-06-24T04:05:52;12.77;;;5.40;;
48881;SDS011;57063;51.406;-2.402;2023-06-24T04:08:19;8.68;;;5.18;;
48881;SDS011;57063;51.406;-2.402;2023-06-24T04:10:47;9.07;;;4.40;;
48881;SDS011;57063;51.406;-2.402;2023-06-24T04:13:12;6.07;;;4.53;;
48881;SDS011;57063;51.406;-2.402;2023-06-24T04:15:38;9.85;;;4.97;;
48881;SDS011;57063;51.406;-2.402;2023-06-24T04:18:04;5.70;;;5.03;;
48881;SDS011;57063;51.406;-2.402;2023-06-24T04:20:29;9.73;;;4.75;;
48881;SDS011;57063;51.406;-2.402;2023-06-24T04:22:59;7.28;;;4.70;;
48881;SDS011;57063;51.406;-2.402;2023-06-24T04:25:25;8.07;;;5.07;;
48881;SDS011;57063;51.406;-2.402;2023-06-24T04:27:51;5.95;;;4.90;;
48881;SDS011;57063;51.406;-2.402;2023-06-24T04:30:16;7.70;;;4.43;;
48881;SDS011;57063;51.406;-2.402;2023-06-24T04:32:42;6.55;;;4.47;;
48881;SDS011;57063;51.406;-2.402;2023-06-24T04:35:07;10.30;;;5.50;;
48881;SDS011;57063;51.406;-2.402;2023-06-24T04:37:33;9.35;;;4.95;;
48881;SDS011;57063;51.406;-2.402;2023-06-24T04:39:58;12.02;;;6.10;;
48881;SDS011;57063;51.406;-2.402;2023-06-24T04:42:24;7.78;;;4.72;;
48881;SDS011;57063;51.406;-2.402;2023-06-24T04:44:49;9.15;;;5.93;;
48881;SDS011;57063;51.406;-2.402;2023-06-24T04:47:16;13.32;;;6.28;;
48881;SDS011;57063;51.406;-2.402;2023-06-24T04:49:44;10.10;;;6.63;;
48881;SDS011;57063;51.406;-2.402;2023-06-24T04:52:10;11.32;;;5.63;;
48881;SDS011;57063;51.406;-2.402;2023-06-24T04:54:36;11.10;;;5.65;;
48881;SDS011;57063;51.406;-2.402;2023-06-24T04:57:02;12.18;;;6.55;;
48881;SDS011;57063;51.406;-2.402;2023-06-24T04:59:31;8.57;;;7.07;;
48881;SDS011;57063;51.406;-2.402;2023-06-24T05:01:56;10.88;;;6.55;;
48881;SDS011;57063;51.406;-2.402;2023-06-24T05:04:21;8.18;;;5.65;;
48881;SDS011;57063;51.406;-2.402;2023-06-24T05:06:47;12.02;;;6.25;;
48881;SDS011;57063;51.406;-2.402;2023-06-24T05:09:13;9.05;;;6.63;;
48881;SDS011;57063;51.406;-2.402;2023-06-24T05:11:41;12.25;;;6.43;;
48881;SDS011;57063;51.406;-2.402;2023-06-24T05:14:07;11.30;;;6.78;;
48881;SDS011;57063;51.406;-2.402;2023-06-24T05:16:32;10.70;;;6.25;;
48881;SDS011;57063;51.406;-2.402;2023-06-24T05:18:58;9.68;;;5.18;;
48881;SDS011;57063;51.406;-2.402;2023-06-24T05:21:24;9.57;;;6.07;;
48881;SDS011;57063;51.406;-2.402;2023-06-24T05:23:49;11.98;;;5.40;;
48881;SDS011;57063;51.406;-2.402;2023-06-24T05:26:14;12.05;;;6.10;;
48881;SDS011;57063;51.406;-2.402;2023-06-24T05:28:40;13.45;;;6.38;;
48881;SDS011;57063;51.406;-2.402;2023-06-24T05:31:05;9.25;;;6.10;;
48881;SDS011;57063;51.406;-2.402;2023-06-24T05:33:31;9.10;;;6.07;;
48881;SDS011;57063;51.406;-2.402;2023-06-24T05:35:57;8.82;;;5.88;;
48881;SDS011;57063;51.406;-2.402;2023-06-24T05:38:22;14.80;;;6.05;;
48881;SDS011;57063;51.406;-2.402;2023-06-24T05:40:47;10.82;;;5.28;;
48881;SDS011;57063;51.406;-2.402;2023-06-24T05:43:13;8.77;;;5.30;;
48881;SDS011;57063;51.406;-2.402;2023-06-24T05:45:39;9.98;;;6.05;;
48881;SDS011;57063;51.406;-2.402;2023-06-24T05:48:04;9.07;;;5.28;;
48881;SDS011;57063;51.406;-2.402;2023-06-24T05:50:30;10.52;;;6.13;;
48881;SDS011;57063;51.406;-2.402;2023-06-24T05:52:55;8.50;;;5.95;;
48881;SDS011;57063;51.406;-2.402;2023-06-24T05:55:21;18.15;;;7.53;;
48881;SDS011;57063;51.406;-2.402;2023-06-24T05:57:46;8.90;;;5.72;;
48881;SDS011;57063;51.406;-2.402;2023-06-24T06:00:12;18.23;;;6.28;;
48881;SDS011;57063;51.406;-2.402;2023-06-24T06:02:38;14.27;;;6.13;;
48881;SDS011;57063;51.406;-2.402;2023-06-24T06:05:03;10.38;;;5.80;;
48881;SDS011;57063;51.406;-2.402;2023-06-24T06:07:29;9.40;;;5.95;;
48881;SDS011;57063;51.406;-2.402;2023-06-24T06:09:55;8.82;;;6.00;;
48881;SDS011;57063;51.406;-2.402;2023-06-24T06:12:21;9.00;;;5.28;;
48881;SDS011;57063;51.406;-2.402;2023-06-24T06:14:46;9.15;;;4.40;;
48881;SDS011;57063;51.406;-2.402;2023-06-24T06:17:13;8.48;;;4.35;;
48881;SDS011;57063;51.406;-2.402;2023-06-24T06:19:39;9.68;;;5.28;;
48881;SDS011;57063;51.406;-2.402;2023-06-24T06:22:06;8.07;;;4.53;;
48881;SDS011;57063;51.406;-2.402;2023-06-24T06:24:32;8.88;;;4.95;;
48881;SDS011;57063;51.406;-2.402;2023-06-24T06:26:57;8.05;;;5.05;;
48881;SDS011;57063;51.406;-2.402;2023-06-24T06:29:24;9.95;;;4.53;;
48881;SDS011;57063;51.406;-2.402;2023-06-24T06:31:49;8.98;;;4.38;;
48881;SDS011;57063;51.406;-2.402;2023-06-24T06:34:15;8.27;;;4.85;;
48881;SDS011;57063;51.406;-2.402;2023-06-24T06:36:40;5.80;;;3.92;;
48881;SDS011;57063;51.406;-2.402;2023-06-24T06:39:06;6.88;;;4.70;;
48881;SDS011;57063;51.406;-2.402;2023-06-24T06:41:31;7.55;;;3.90;;
48881;SDS011;57063;51.406;-2.402;2023-06-24T06:43:58;8.60;;;4.78;;
48881;SDS011;57063;51.406;-2.402;2023-06-24T06:46:24;7.50;;;4.60;;
48881;SDS011;57063;51.406;-2.402;2023-06-24T06:48:49;6.45;;;4.35;;
48881;SDS011;57063;51.406;-2.402;2023-06-24T06:51:15;5.47;;;4.40;;
48881;SDS011;57063;51.406;-2.402;2023-06-24T06:53:43;6.43;;;4.50;;
48881;SDS011;57063;51.406;-2.402;2023-06-24T06:56:09;8.70;;;3.88;;
48881;SDS011;57063;51.406;-2.402;2023-06-24T06:58:41;5.18;;;4.25;;
48881;SDS011;57063;51.406;-2.402;2023-06-24T07:01:06;8.40;;;4.30;;
48881;SDS011;57063;51.406;-2.402;2023-06-24T07:03:32;7.07;;;4.63;;
48881;SDS011;57063;51.406;-2.402;2023-06-24T07:05:57;5.18;;;4.20;;
48881;SDS011;57063;51.406;-2.402;2023-06-24T07:08:22;6.13;;;3.92;;
48881;SDS011;57063;51.406;-2.402;2023-06-24T07:10:48;9.70;;;4.28;;
48881;SDS011;57063;51.406;-2.402;2023-06-24T07:13:15;8.32;;;4.30;;
48881;SDS011;57063;51.406;-2.402;2023-06-24T07:15:41;5.80;;;3.83;;
48881;SDS011;57063;51.406;-2.402;2023-06-24T07:18:12;6.25;;;3.40;;
48881;SDS011;57063;51.406;-2.402;2023-06-24T07:20:42;8.32;;;4.50;;
48881;SDS011;57063;51.406;-2.402;2023-06-24T07:23:10;10.65;;;4.28;;
48881;SDS011;57063;51.406;-2.402;2023-06-24T07:25:36;6.43;;;3.78;;
48881;SDS011;57063;51.406;-2.402;2023-06-24T07:33:17;5.38;;;3.42;;
48881;SDS011;57063;51.406;-2.402;2023-06-24T07:35:46;9.60;;;3.90;;
48881;SDS011;57063;51.406;-2.402;2023-06-24T07:38:11;6.90;;;3.67;;
48881;SDS011;57063;51.406;-2.402;2023-06-24T07:40:39;6.07;;;3.45;;
48881;SDS011;57063;51.406;-2.402;2023-06-24T07:43:05;6.57;;;3.25;;
48881;SDS011;57063;51.406;-2.402;2023-06-24T07:45:37;8.82;;;3.30;;
48881;SDS011;57063;51.406;-2.402;2023-06-24T07:48:13;6.22;;;3.25;;
48881;SDS011;57063;51.406;-2.402;2023-06-24T07:50:52;6.55;;;4.13;;
48881;SDS011;57063;51.406;-2.402;2023-06-24T07:53:17;8.95;;;3.80;;
48881;SDS011;57063;51.406;-2.402;2023-06-24T07:55:49;6.68;;;3.78;;
48881;SDS011;57063;51.406;-2.402;2023-06-24T08:00:49;6.18;;;3.42;;
48881;SDS011;57063;51.406;-2.402;2023-06-24T08:03:38;7.13;;;3.80;;
48881;SDS011;57063;51.406;-2.402;2023-06-24T08:06:07;6.20;;;3.50;;
48881;SDS011;57063;51.406;-2.402;2023-06-24T08:11:04;5.97;;;2.97;;
48881;SDS011;57063;51.406;-2.402;2023-06-24T08:13:32;6.95;;;2.90;;
48881;SDS011;57063;51.406;-2.402;2023-06-24T08:15:58;5.15;;;3.17;;
48881;SDS011;57063;51.406;-2.402;2023-06-24T08:20:58;6.93;;;3.30;;
48881;SDS011;57063;51.406;-2.402;2023-06-24T08:23:26;5.35;;;3.28;;
48881;SDS011;57063;51.406;-2.402;2023-06-24T08:25:52;7.60;;;2.80;;
48881;SDS011;57063;51.406;-2.402;2023-06-24T08:28:17;5.55;;;2.95;;
48881;SDS011;57063;51.406;-2.402;2023-06-24T08:30:42;5.60;;;3.10;;
48881;SDS011;57063;51.406;-2.402;2023-06-24T08:33:08;5.00;;;3.25;;
48881;SDS011;57063;51.406;-2.402;2023-06-24T08:35:33;5.10;;;2.95;;
48881;SDS011;57063;51.406;-2.402;2023-06-24T08:37:59;5.05;;;3.00;;
48881;SDS011;57063;51.406;-2.402;2023-06-24T08:40:24;5.13;;;2.90;;
48881;SDS011;57063;51.406;-2.402;2023-06-24T08:42:50;8.40;;;2.95;;
48881;SDS011;57063;51.406;-2.402;2023-06-24T08:45:16;7.00;;;3.00;;
48881;SDS011;57063;51.406;-2.402;2023-06-24T08:47:41;9.02;;;3.10;;
48881;SDS011;57063;51.406;-2.402;2023-06-24T08:50:08;7.18;;;3.15;;
48881;SDS011;57063;51.406;-2.402;2023-06-24T08:52:36;8.75;;;3.40;;
48881;SDS011;57063;51.406;-2.402;2023-06-24T08:55:07;5.15;;;2.65;;
48881;SDS011;57063;51.406;-2.402;2023-06-24T09:00:04;6.25;;;3.28;;
48881;SDS011;57063;51.406;-2.402;2023-06-24T09:02:34;8.60;;;3.40;;
48881;SDS011;57063;51.406;-2.402;2023-06-24T09:05:03;5.63;;;2.83;;
48881;SDS011;57063;51.406;-2.402;2023-06-24T09:07:31;5.97;;;2.75;;
48881;SDS011;57063;51.406;-2.402;2023-06-24T09:09:56;5.03;;;3.17;;
48881;SDS011;57063;51.406;-2.402;2023-06-24T09:12:23;5.13;;;2.85;;
48881;SDS011;57063;51.406;-2.402;2023-06-24T09:14:52;5.57;;;3.70;;
48881;SDS011;57063;51.406;-2.402;2023-06-24T09:17:22;5.40;;;2.70;;
48881;SDS011;57063;51.406;-2.402;2023-06-24T09:19:48;4.25;;;2.50;;
48881;SDS011;57063;51.406;-2.402;2023-06-24T09:22:14;7.85;;;2.75;;
48881;SDS011;57063;51.406;-2.402;2023-06-24T09:24:44;6.63;;;2.60;;
48881;SDS011;57063;51.406;-2.402;2023-06-24T09:27:12;4.57;;;2.90;;
48881;SDS011;57063;51.406;-2.402;2023-06-24T09:29:39;4.72;;;2.83;;
48881;SDS011;57063;51.406;-2.402;2023-06-24T09:32:07;4.88;;;2.80;;
48881;SDS011;57063;51.406;-2.402;2023-06-24T09:34:33;6.28;;;2.55;;
48881;SDS011;57063;51.406;-2.402;2023-06-24T09:37:00;7.65;;;3.22;;
48881;SDS011;57063;51.406;-2.402;2023-06-24T09:39:26;5.30;;;2.97;;
48881;SDS011;57063;51.406;-2.402;2023-06-24T09:41:56;4.07;;;2.05;;
48881;SDS011;57063;51.406;-2.402;2023-06-24T09:44:22;5.03;;;2.30;;
48881;SDS011;57063;51.406;-2.402;2023-06-24T09:46:48;7.03;;;2.58;;
48881;SDS011;57063;51.406;-2.402;2023-06-24T09:49:13;5.93;;;2.75;;
48881;SDS011;57063;51.406;-2.402;2023-06-24T09:51:43;4.10;;;2.70;;
48881;SDS011;57063;51.406;-2.402;2023-06-24T09:56:37;5.13;;;2.75;;
48881;SDS011;57063;51.406;-2.402;2023-06-24T09:59:07;5.72;;;2.58;;
48881;SDS011;57063;51.406;-2.402;2023-06-24T10:01:35;6.68;;;3.10;;
48881;SDS011;57063;51.406;-2.402;2023-06-24T10:04:04;3.03;;;2.08;;
48881;SDS011;57063;51.406;-2.402;2023-06-24T10:06:31;5.43;;;2.80;;
48881;SDS011;57063;51.406;-2.402;2023-06-24T10:09:00;8.77;;;2.72;;
48881;SDS011;57063;51.406;-2.402;2023-06-24T10:11:26;5.40;;;2.70;;
48881;SDS011;57063;51.406;-2.402;2023-06-24T10:13:52;4.15;;;2.50;;
48881;SDS011;57063;51.406;-2.402;2023-06-24T10:16:18;3.83;;;1.90;;
48881;SDS011;57063;51.406;-2.402;2023-06-24T10:18:44;3.20;;;2.40;;
48881;SDS011;57063;51.406;-2.402;2023-06-24T10:21:11;5.75;;;2.03;;
48881;SDS011;57063;51.406;-2.402;2023-06-24T10:26:27;4.50;;;2.17;;
48881;SDS011;57063;51.406;-2.402;2023-06-24T10:36:53;4.40;;;2.58;;
48881;SDS011;57063;51.406;-2.402;2023-06-24T10:42:36;7.03;;;2.17;;
48881;SDS011;57063;51.406;-2.402;2023-06-24T10:47:34;3.55;;;1.90;;
48881;SDS011;57063;51.406;-2.402;2023-06-24T10:50:01;4.00;;;2.10;;
48881;SDS011;57063;51.406;-2.402;2023-06-24T10:52:27;5.60;;;2.75;;
48881;SDS011;57063;51.406;-2.402;2023-06-24T10:54:55;2.60;;;1.42;;
48881;SDS011;57063;51.406;-2.402;2023-06-24T10:57:25;2.78;;;1.60;;
48881;SDS011;57063;51.406;-2.402;2023-06-24T10:59:56;3.45;;;2.05;;
48881;SDS011;57063;51.406;-2.402;2023-06-24T11:02:23;4.05;;;1.77;;
48881;SDS011;57063;51.406;-2.402;2023-06-24T11:04:56;3.80;;;1.90;;
48881;SDS011;57063;51.406;-2.402;2023-06-24T11:07:32;3.53;;;1.50;;
48881;SDS011;57063;51.406;-2.402;2023-06-24T11:10:04;4.85;;;1.70;;
48881;SDS011;57063;51.406;-2.402;2023-06-24T11:12:37;2.95;;;1.48;;
48881;SDS011;57063;51.406;-2.402;2023-06-24T11:15:07;5.07;;;1.95;;
48881;SDS011;57063;51.406;-2.402;2023-06-24T11:18:11;3.08;;;1.65;;
48881;SDS011;57063;51.406;-2.402;2023-06-24T11:21:11;4.80;;;1.60;;
48881;SDS011;57063;51.406;-2.402;2023-06-24T11:23:37;4.97;;;1.70;;
48881;SDS011;57063;51.406;-2.402;2023-06-24T11:26:10;3.55;;;1.83;;
48881;SDS011;57063;51.406;-2.402;2023-06-24T11:31:47;3.35;;;1.80;;
48881;SDS011;57063;51.406;-2.402;2023-06-24T11:34:21;4.60;;;1.65;;
48881;SDS011;57063;51.406;-2.402;2023-06-24T11:37:09;4.32;;;1.90;;
48881;SDS011;57063;51.406;-2.402;2023-06-24T11:39:39;4.75;;;1.88;;
48881;SDS011;57063;51.406;-2.402;2023-06-24T11:42:08;3.97;;;1.65;;
48881;SDS011;57063;51.406;-2.402;2023-06-24T11:44:40;3.17;;;1.20;;
48881;SDS011;57063;51.406;-2.402;2023-06-24T11:47:10;2.47;;;1.42;;
48881;SDS011;57063;51.406;-2.402;2023-06-24T11:49:52;2.72;;;1.30;;
48881;SDS011;57063;51.406;-2.402;2023-06-24T11:54:59;1.23;;;1.13;;
48881;SDS011;57063;51.406;-2.402;2023-06-24T12:00:13;2.67;;;1.48;;
48881;SDS011;57063;51.406;-2.402;2023-06-24T12:02:39;2.53;;;1.35;;
48881;SDS011;57063;51.406;-2.402;2023-06-24T12:05:05;1.88;;;1.10;;
48881;SDS011;57063;51.406;-2.402;2023-06-24T12:07:31;3.25;;;1.40;;
48881;SDS011;57063;51.406;-2.402;2023-06-24T12:09:57;2.50;;;1.35;;
48881;SDS011;57063;51.406;-2.402;2023-06-24T12:12:23;4.45;;;1.85;;
48881;SDS011;57063;51.406;-2.402;2023-06-24T12:14:48;3.78;;;1.52;;
48881;SDS011;57063;51.406;-2.402;2023-06-24T12:17:16;3.38;;;1.55;;
48881;SDS011;57063;51.406;-2.402;2023-06-24T12:19:42;3.38;;;1.00;;
48881;SDS011;57063;51.406;-2.402;2023-06-24T12:22:07;2.35;;;1.23;;
48881;SDS011;57063;51.406;-2.402;2023-06-24T12:24:33;1.33;;;0.80;;
48881;SDS011;57063;51.406;-2.402;2023-06-24T12:26:59;3.13;;;0.85;;
48881;SDS011;57063;51.406;-2.402;2023-06-24T12:29:25;2.60;;;1.00;;
48881;SDS011;57063;51.406;-2.402;2023-06-24T12:31:50;1.70;;;1.10;;
48881;SDS011;57063;51.406;-2.402;2023-06-24T12:34:16;1.88;;;0.93;;
48881;SDS011;57063;51.406;-2.402;2023-06-24T12:36:42;2.42;;;1.08;;
48881;SDS011;57063;51.406;-2.402;2023-06-24T12:39:07;1.23;;;0.85;;
48881;SDS011;57063;51.406;-2.402;2023-06-24T12:41:33;1.73;;;0.90;;
48881;SDS011;57063;51.406;-2.402;2023-06-24T12:44:01;5.50;;;1.10;;
48881;SDS011;57063;51.406;-2.402;2023-06-24T12:46:27;2.67;;;0.95;;
48881;SDS011;57063;51.406;-2.402;2023-06-24T12:48:54;3.17;;;0.80;;
48881;SDS011;57063;51.406;-2.402;2023-06-24T12:51:24;2.70;;;0.82;;
48881;SDS011;57063;51.406;-2.402;2023-06-24T12:53:49;4.55;;;0.88;;
48881;SDS011;57063;51.406;-2.402;2023-06-24T12:56:15;2.72;;;0.77;;
48881;SDS011;57063;51.406;-2.402;2023-06-24T12:58:43;0.77;;;0.70;;
48881;SDS011;57063;51.406;-2.402;2023-06-24T13:01:10;6.60;;;0.77;;
48881;SDS011;57063;51.406;-2.402;2023-06-24T13:03:35;1.67;;;0.80;;
48881;SDS011;57063;51.406;-2.402;2023-06-24T13:06:01;2.75;;;1.02;;
48881;SDS011;57063;51.406;-2.402;2023-06-24T13:08:27;2.67;;;0.77;;
48881;SDS011;57063;51.406;-2.402;2023-06-24T13:10:52;2.30;;;0.82;;
48881;SDS011;57063;51.406;-2.402;2023-06-24T13:13:18;1.65;;;0.90;;
48881;SDS011;57063;51.406;-2.402;2023-06-24T13:15:44;2.95;;;0.70;;
48881;SDS011;57063;51.406;-2.402;2023-06-24T13:18:09;0.82;;;0.60;;
48881;SDS011;57063;51.406;-2.402;2023-06-24T13:20:35;1.05;;;0.70;;
48881;SDS011;57063;51.406;-2.402;2023-06-24T13:23:08;2.08;;;1.10;;
48881;SDS011;57063;51.406;-2.402;2023-06-24T13:25:34;1.92;;;0.70;;
48881;SDS011;57063;51.406;-2.402;2023-06-24T13:28:00;1.27;;;0.70;;
48881;SDS011;57063;51.406;-2.402;2023-06-24T13:30:26;2.30;;;0.57;;
48881;SDS011;57063;51.406;-2.402;2023-06-24T13:32:52;3.40;;;0.95;;
48881;SDS011;57063;51.406;-2.402;2023-06-24T13:35:17;1.17;;;0.55;;
48881;SDS011;57063;51.406;-2.402;2023-06-24T13:37:43;1.67;;;0.98;;
48881;SDS011;57063;51.406;-2.402;2023-06-24T13:40:09;1.85;;;0.98;;
48881;SDS011;57063;51.406;-2.402;2023-06-24T13:42:35;2.25;;;0.70;;
48881;SDS011;57063;51.406;-2.402;2023-06-24T13:45:01;1.05;;;0.77;;
48881;SDS011;57063;51.406;-2.402;2023-06-24T13:47:27;1.52;;;0.75;;
48881;SDS011;57063;51.406;-2.402;2023-06-24T13:49:52;2.95;;;0.80;;
48881;SDS011;57063;51.406;-2.402;2023-06-24T13:52:18;2.60;;;1.00;;
48881;SDS011;57063;51.406;-2.402;2023-06-24T13:54:43;2.22;;;0.90;;
48881;SDS011;57063;51.406;-2.402;2023-06-24T13:57:10;2.88;;;0.90;;
48881;SDS011;57063;51.406;-2.402;2023-06-24T13:59:35;3.60;;;1.40;;
48881;SDS011;57063;51.406;-2.402;2023-06-24T14:02:01;2.60;;;0.80;;
48881;SDS011;57063;51.406;-2.402;2023-06-24T14:04:26;1.52;;;1.00;;
48881;SDS011;57063;51.406;-2.402;2023-06-24T14:06:52;1.40;;;0.80;;
48881;SDS011;57063;51.406;-2.402;2023-06-24T14:09:18;1.38;;;0.80;;
48881;SDS011;57063;51.406;-2.402;2023-06-24T14:11:44;1.95;;;1.05;;
48881;SDS011;57063;51.406;-2.402;2023-06-24T14:14:10;1.52;;;0.82;;
48881;SDS011;57063;51.406;-2.402;2023-06-24T14:16:40;1.73;;;1.00;;
48881;SDS011;57063;51.406;-2.402;2023-06-24T14:19:09;1.55;;;1.00;;
48881;SDS011;57063;51.406;-2.402;2023-06-24T14:21:35;4.25;;;1.23;;
48881;SDS011;57063;51.406;-2.402;2023-06-24T14:24:03;1.42;;;1.00;;
48881;SDS011;57063;51.406;-2.402;2023-06-24T14:26:31;3.28;;;1.10;;
48881;SDS011;57063;51.406;-2.402;2023-06-24T14:29:16;1.40;;;1.15;;
48881;SDS011;57063;51.406;-2.402;2023-06-24T14:32:02;3.00;;;0.90;;
48881;SDS011;57063;51.406;-2.402;2023-06-24T14:34:31;1.35;;;0.80;;
48881;SDS011;57063;51.406;-2.402;2023-06-24T14:37:10;1.33;;;0.70;;
48881;SDS011;57063;51.406;-2.402;2023-06-24T14:39:36;1.17;;;0.82;;
48881;SDS011;57063;51.406;-2.402;2023-06-24T14:42:02;1.73;;;1.10;;
48881;SDS011;57063;51.406;-2.402;2023-06-24T14:44:31;3.08;;;0.88;;
48881;SDS011;57063;51.406;-2.402;2023-06-24T14:46:56;3.20;;;0.80;;
48881;SDS011;57063;51.406;-2.402;2023-06-24T14:49:22;1.45;;;0.90;;
48881;SDS011;57063;51.406;-2.402;2023-06-24T14:51:48;1.27;;;0.75;;
48881;SDS011;57063;51.406;-2.402;2023-06-24T14:54:13;7.82;;;0.82;;
48881;SDS011;57063;51.406;-2.402;2023-06-24T14:56:39;1.10;;;0.70;;
48881;SDS011;57063;51.406;-2.402;2023-06-24T14:59:04;3.17;;;1.27;;
48881;SDS011;57063;51.406;-2.402;2023-06-24T15:01:30;4.03;;;1.20;;
48881;SDS011;57063;51.406;-2.402;2023-06-24T15:03:58;1.73;;;0.90;;
48881;SDS011;57063;51.406;-2.402;2023-06-24T15:06:28;3.53;;;2.33;;
48881;SDS011;57063;51.406;-2.402;2023-06-24T15:08:56;1.58;;;0.82;;
48881;SDS011;57063;51.406;-2.402;2023-06-24T15:11:26;2.13;;;1.37;;
48881;SDS011;57063;51.406;-2.402;2023-06-24T15:13:55;1.48;;;0.90;;
48881;SDS011;57063;51.406;-2.402;2023-06-24T15:16:26;1.00;;;0.77;;
48881;SDS011;57063;51.406;-2.402;2023-06-24T15:18:55;2.85;;;1.27;;
48881;SDS011;57063;51.406;-2.402;2023-06-24T15:26:38;2.45;;;1.30;;
48881;SDS011;57063;51.406;-2.402;2023-06-24T15:29:04;3.50;;;0.95;;
48881;SDS011;57063;51.406;-2.402;2023-06-24T15:31:34;1.85;;;1.02;;
48881;SDS011;57063;51.406;-2.402;2023-06-24T15:34:03;1.67;;;0.95;;
48881;SDS011;57063;51.406;-2.402;2023-06-24T15:36:29;3.90;;;1.38;;